^^
Station Historical Data
Daily Summary for February 1, 2018 Units:  Both    English   Metric
« Previous Day
Next Day »
Daily Weekly Monthly Yearly Custom
  High: Low: Average:
Temperature: TemperatureF °F /  -17.8 °C 69.6 °F /  20.9 °C 77.4 °F /  25.2 °C
Dew Point: DewpointF °F /  -17.8 °C 44.8 °F /  7.1 °C 48.2 °F /  9 °C
Humidity: Humidity% 24% 36%
Wind Speed: WindSpeedMPHmph /  0km/h - -6mph /  -9.7km/h
Wind Gust: WindSpeedGustMPHmph /  0km/h - -
Wind- -
Pressure: PressureIn in /  0 hPa 29.46 in /  997.5 hPa -
Precipitation: 0.00 in /  0 mm    
Historical Graphs
 
 
Tabular Data for February 1, 2018
Time Temperature Dew Point Pressure Wind Wind Speed Wind Gust Humidity Rainfall Rate (Hourly) solar Conditions
TemperatureF °F /  -17.8 °C DewpointF °F /  -17.8 °C PressureInin /  0hPa Calm     Humidity% HourlyPrecipInin /  0mm SoftwareType W/m2 Conditions
08:50 71.4 °F /  21.9 °C 45.1 °F /  7.3 °C 29.51in /  999.2hPa ENE 2.0mph /  3.2km/h 3.0mph /  4.8km/h 39% 0.00in /  0mm meteobridge W/m2
08:56 72.1 °F /  22.3 °C 45.9 °F /  7.7 °C 29.52in /  999.5hPa East 0.9mph /  1.4km/h 3.0mph /  4.8km/h 39% 0.00in /  0mm meteobridge W/m2
09:02 73.0 °F /  22.8 °C 45.9 °F /  7.7 °C 29.52in /  999.5hPa NE 2.0mph /  3.2km/h 6.0mph /  9.7km/h 38% 0.00in /  0mm meteobridge W/m2
09:08 73.2 °F /  22.9 °C 46.0 °F /  7.8 °C 29.52in /  999.5hPa South 8.9mph /  14.3km/h 12.0mph /  19.3km/h 38% 0.00in /  0mm meteobridge W/m2
09:14 70.7 °F /  21.5 °C 46.4 °F /  8 °C 29.52in /  999.5hPa SSW 6.0mph /  9.7km/h 12.0mph /  19.3km/h 42% 0.00in /  0mm meteobridge W/m2
09:20 69.6 °F /  20.9 °C 46.2 °F /  7.9 °C 29.52in /  999.5hPa SSW 6.9mph /  11.1km/h 9.0mph /  14.5km/h 43% 0.00in /  0mm meteobridge W/m2
09:26 70.2 °F /  21.2 °C 48.9 °F /  9.4 °C 29.52in /  999.5hPa SSW 6.0mph /  9.7km/h 7.0mph /  11.3km/h 47% 0.00in /  0mm meteobridge W/m2
09:32 70.5 °F /  21.4 °C 49.8 °F /  9.9 °C 29.52in /  999.5hPa SSW 10.1mph /  16.3km/h 11.0mph /  17.7km/h 48% 0.00in /  0mm meteobridge W/m2
09:38 70.9 °F /  21.6 °C 50.2 °F /  10.1 °C 29.52in /  999.5hPa South 8.1mph /  13km/h 12.0mph /  19.3km/h 48% 0.00in /  0mm meteobridge W/m2
09:44 70.7 °F /  21.5 °C 49.5 °F /  9.7 °C 29.52in /  999.5hPa SSW 6.9mph /  11.1km/h 10.0mph /  16.1km/h 47% 0.00in /  0mm meteobridge W/m2
09:50 70.9 °F /  21.6 °C 49.1 °F /  9.5 °C 29.52in /  999.5hPa SSW 2.9mph /  4.7km/h 7.0mph /  11.3km/h 46% 0.00in /  0mm meteobridge W/m2
09:57 72.3 °F /  22.4 °C 50.9 °F /  10.5 °C 29.52in /  999.5hPa SSE 2.9mph /  4.7km/h 10.0mph /  16.1km/h 47% 0.00in /  0mm meteobridge W/m2
10:03 73.0 °F /  22.8 °C 51.1 °F /  10.6 °C 29.52in /  999.5hPa South 2.9mph /  4.7km/h 9.0mph /  14.5km/h 46% 0.00in /  0mm meteobridge W/m2
10:09 74.8 °F /  23.8 °C 51.4 °F /  10.8 °C 29.52in /  999.5hPa ENE 0.9mph /  1.4km/h 5.0mph /  8km/h 44% 0.00in /  0mm meteobridge W/m2
10:15 76.5 °F /  24.7 °C 51.6 °F /  10.9 °C 29.52in /  999.5hPa South 2.0mph /  3.2km/h 10.0mph /  16.1km/h 42% 0.00in /  0mm meteobridge W/m2
10:21 76.3 °F /  24.6 °C 50.9 °F /  10.5 °C 29.52in /  999.5hPa South 2.9mph /  4.7km/h 5.0mph /  8km/h 41% 0.00in /  0mm meteobridge W/m2
10:27 76.3 °F /  24.6 °C 51.4 °F /  10.8 °C 29.53in /  999.9hPa NNE 8.9mph /  14.3km/h 14.0mph /  22.5km/h 42% 0.00in /  0mm meteobridge W/m2
10:35 75.6 °F /  24.2 °C 50.9 °F /  10.5 °C 29.53in /  999.9hPa ENE 4.0mph /  6.4km/h 13.0mph /  20.9km/h 42% 0.00in /  0mm meteobridge W/m2
10:41 75.7 °F /  24.3 °C 52.3 °F /  11.3 °C 29.53in /  999.9hPa NE 6.9mph /  11.1km/h 10.0mph /  16.1km/h 44% 0.00in /  0mm meteobridge W/m2
10:47 76.6 °F /  24.8 °C 51.8 °F /  11 °C 29.53in /  999.9hPa Calm   12.0mph /  19.3km/h 42% 0.00in /  0mm meteobridge W/m2
10:54 77.4 °F /  25.2 °C 51.8 °F /  11 °C 29.53in /  999.9hPa SE 0.9mph /  1.4km/h 3.0mph /  4.8km/h 41% 0.00in /  0mm meteobridge W/m2
11:00 75.7 °F /  24.3 °C 51.1 °F /  10.6 °C 29.53in /  999.9hPa SSE 2.0mph /  3.2km/h 13.0mph /  20.9km/h 42% 0.00in /  0mm meteobridge W/m2
11:06 76.8 °F /  24.9 °C 51.3 °F /  10.7 °C 29.53in /  999.9hPa South 2.9mph /  4.7km/h 5.0mph /  8km/h 41% 0.00in /  0mm meteobridge W/m2
11:24 78.3 °F /  25.7 °C 51.3 °F /  10.7 °C 29.52in /  999.5hPa SSE 2.9mph /  4.7km/h 4.0mph /  6.4km/h 39% 0.00in /  0mm meteobridge W/m2
11:31 78.6 °F /  25.9 °C 50.9 °F /  10.5 °C 29.53in /  999.9hPa SSW 6.9mph /  11.1km/h 13.0mph /  20.9km/h 38% 0.00in /  0mm meteobridge W/m2
11:37 77.5 °F /  25.3 °C 50.5 °F /  10.3 °C 29.53in /  999.9hPa SSE 8.9mph /  14.3km/h 11.0mph /  17.7km/h 39% 0.00in /  0mm meteobridge W/m2
11:43 77.7 °F /  25.4 °C 50.0 °F /  10 °C 29.52in /  999.5hPa SSW 6.9mph /  11.1km/h 9.0mph /  14.5km/h 38% 0.00in /  0mm meteobridge W/m2
11:49 78.4 °F /  25.8 °C 49.3 °F /  9.6 °C 29.52in /  999.5hPa ESE 10.1mph /  16.3km/h 10.1mph /  16.3km/h 36% 0.00in /  0mm meteobridge W/m2
11:55 79.2 °F /  26.2 °C 49.1 °F /  9.5 °C 29.52in /  999.5hPa SSE 4.9mph /  7.9km/h 12.0mph /  19.3km/h 35% 0.00in /  0mm meteobridge W/m2
12:01 79.3 °F /  26.3 °C 50.0 °F /  10 °C 29.52in /  999.5hPa Calm   10.0mph /  16.1km/h 36% 0.00in /  0mm meteobridge W/m2
12:08 80.2 °F /  26.8 °C 50.2 °F /  10.1 °C 29.52in /  999.5hPa SE 4.9mph /  7.9km/h 5.0mph /  8km/h 35% 0.00in /  0mm meteobridge W/m2
12:14 81.1 °F /  27.3 °C 50.2 °F /  10.1 °C 29.52in /  999.5hPa NE 4.9mph /  7.9km/h 7.0mph /  11.3km/h 34% 0.00in /  0mm meteobridge W/m2
12:20 82.2 °F /  27.9 °C 50.2 °F /  10.1 °C 29.51in /  999.2hPa NNE 15.0mph /  24.1km/h 15.0mph /  24.1km/h 33% 0.00in /  0mm meteobridge W/m2
12:26 82.2 °F /  27.9 °C 49.5 °F /  9.7 °C 29.52in /  999.5hPa NNE 6.9mph /  11.1km/h 16.0mph /  25.7km/h 32% 0.00in /  0mm meteobridge W/m2
12:32 81.5 °F /  27.5 °C 49.6 °F /  9.8 °C 29.51in /  999.2hPa ENE 11.0mph /  17.7km/h 12.0mph /  19.3km/h 33% 0.00in /  0mm meteobridge W/m2
12:38 81.7 °F /  27.6 °C 48.9 °F /  9.4 °C 29.51in /  999.2hPa NNE 10.1mph /  16.3km/h 17.0mph /  27.4km/h 32% 0.00in /  0mm meteobridge W/m2
12:44 81.1 °F /  27.3 °C 49.3 °F /  9.6 °C 29.51in /  999.2hPa NE 8.9mph /  14.3km/h 15.0mph /  24.1km/h 33% 0.00in /  0mm meteobridge W/m2
12:50 81.9 °F /  27.7 °C 48.2 °F /  9 °C 29.52in /  999.5hPa ENE 4.9mph /  7.9km/h 15.0mph /  24.1km/h 31% 0.00in /  0mm meteobridge W/m2
13:12 83.8 °F /  28.8 °C 48.2 °F /  9 °C 29.51in /  999.2hPa ESE 2.0mph /  3.2km/h 6.0mph /  9.7km/h 29% 0.00in /  0mm meteobridge W/m2
13:19 83.8 °F /  28.8 °C 47.3 °F /  8.5 °C 29.50in /  998.9hPa NW 4.0mph /  6.4km/h 7.0mph /  11.3km/h 28% 0.00in /  0mm meteobridge W/m2
13:25 84.7 °F /  29.3 °C 47.1 °F /  8.4 °C 29.50in /  998.9hPa NNW 17.0mph /  27.4km/h 17.0mph /  27.4km/h 27% 0.00in /  0mm meteobridge W/m2
13:31 84.2 °F /  29 °C 47.5 °F /  8.6 °C 29.50in /  998.9hPa NE 6.0mph /  9.7km/h 9.0mph /  14.5km/h 28% 0.00in /  0mm meteobridge W/m2
13:37 84.7 °F /  29.3 °C 48.0 °F /  8.9 °C 29.49in /  998.5hPa NE 8.1mph /  13km/h 8.1mph /  13km/h 28% 0.00in /  0mm meteobridge W/m2
13:43 85.3 °F /  29.6 °C 47.5 °F /  8.6 °C 29.49in /  998.5hPa NNE 8.1mph /  13km/h 15.0mph /  24.1km/h 27% 0.00in /  0mm meteobridge W/m2
13:49 84.6 °F /  29.2 °C 47.8 °F /  8.8 °C 29.49in /  998.5hPa NNE 11.0mph /  17.7km/h 15.0mph /  24.1km/h 28% 0.00in /  0mm meteobridge W/m2
13:55 84.4 °F /  29.1 °C 47.7 °F /  8.7 °C 29.49in /  998.5hPa SE 4.0mph /  6.4km/h 4.0mph /  6.4km/h 28% 0.00in /  0mm meteobridge W/m2
14:01 86.0 °F /  30 °C 48.2 °F /  9 °C 29.48in /  998.2hPa NNE 15.0mph /  24.1km/h 17.0mph /  27.4km/h 27% 0.00in /  0mm meteobridge W/m2
14:07 84.6 °F /  29.2 °C 47.8 °F /  8.8 °C 29.48in /  998.2hPa East 4.9mph /  7.9km/h 9.0mph /  14.5km/h 28% 0.00in /  0mm meteobridge W/m2
14:13 85.8 °F /  29.9 °C 48.0 °F /  8.9 °C 29.48in /  998.2hPa SE 4.9mph /  7.9km/h 9.0mph /  14.5km/h 27% 0.00in /  0mm meteobridge W/m2
14:19 87.3 °F /  30.7 °C 49.3 °F /  9.6 °C 29.48in /  998.2hPa ESE 4.0mph /  6.4km/h 10.0mph /  16.1km/h 27% 0.00in /  0mm meteobridge W/m2
14:25 88.3 °F /  31.3 °C 48.0 °F /  8.9 °C 29.48in /  998.2hPa SE 4.0mph /  6.4km/h 6.0mph /  9.7km/h 25% 0.00in /  0mm meteobridge W/m2
14:31 87.6 °F /  30.9 °C 47.5 °F /  8.6 °C 29.46in /  997.5hPa North 11.0mph /  17.7km/h 12.0mph /  19.3km/h 25% 0.00in /  0mm meteobridge W/m2
14:37 88.5 °F /  31.4 °C 49.3 °F /  9.6 °C 29.46in /  997.5hPa East 11.0mph /  17.7km/h 14.0mph /  22.5km/h 26% 0.00in /  0mm meteobridge W/m2
14:43 88.9 °F /  31.6 °C 47.5 °F /  8.6 °C 29.46in /  997.5hPa East 6.9mph /  11.1km/h 15.0mph /  24.1km/h 24% 0.00in /  0mm meteobridge W/m2
14:50 87.1 °F /  30.6 °C 48.0 °F /  8.9 °C 29.46in /  997.5hPa NNE 12.1mph /  19.5km/h 16.0mph /  25.7km/h 26% 0.00in /  0mm meteobridge W/m2
14:56 86.9 °F /  30.5 °C 46.8 °F /  8.2 °C 29.46in /  997.5hPa East 10.1mph /  16.3km/h 17.0mph /  27.4km/h 25% 0.00in /  0mm meteobridge W/m2
15:06 86.9 °F /  30.5 °C 46.8 °F /  8.2 °C 29.47in /  997.9hPa South 4.9mph /  7.9km/h 7.0mph /  11.3km/h 25% 0.00in /  0mm meteobridge W/m2
15:24 80.2 °F /  26.8 °C 46.9 °F /  8.3 °C 29.47in /  997.9hPa North 21.0mph /  33.8km/h 21.0mph /  33.8km/h 31% 0.00in /  0mm meteobridge W/m2
15:45 77.4 °F /  25.2 °C 46.0 °F /  7.8 °C 29.47in /  997.9hPa North 14.1mph /  22.7km/h 16.0mph /  25.7km/h 33% 0.00in /  0mm meteobridge W/m2
15:51 76.8 °F /  24.9 °C 44.8 °F /  7.1 °C 29.47in /  997.9hPa North 13.0mph /  20.9km/h 16.0mph /  25.7km/h 32% 0.00in /  0mm meteobridge W/m2
15:57 76.5 °F /  24.7 °C 46.0 °F /  7.8 °C 29.48in /  998.2hPa North 15.0mph /  24.1km/h 17.0mph /  27.4km/h 34% 0.00in /  0mm meteobridge W/m2
16:18 73.9 °F /  23.3 °C 50.0 °F /  10 °C 29.47in /  997.9hPa WNW 10.1mph /  16.3km/h 11.0mph /  17.7km/h 43% 0.00in /  0mm meteobridge W/m2
16:24 74.5 °F /  23.6 °C 49.3 °F /  9.6 °C 29.47in /  997.9hPa SE 10.1mph /  16.3km/h 16.0mph /  25.7km/h 41% 0.00in /  0mm meteobridge W/m2
16:30 75.6 °F /  24.2 °C 48.9 °F /  9.4 °C 29.47in /  997.9hPa WNW 10.1mph /  16.3km/h 21.0mph /  33.8km/h 39% 0.00in /  0mm meteobridge W/m2
16:36 76.1 °F /  24.5 °C 49.3 °F /  9.6 °C 29.47in /  997.9hPa ENE 0.9mph /  1.4km/h 12.0mph /  19.3km/h 39% 0.00in /  0mm meteobridge W/m2
16:42 75.6 °F /  24.2 °C 50.2 °F /  10.1 °C 29.46in /  997.5hPa SSE 6.9mph /  11.1km/h 12.0mph /  19.3km/h 41% 0.00in /  0mm meteobridge W/m2
16:48 75.9 °F /  24.4 °C 49.8 °F /  9.9 °C 29.47in /  997.9hPa South 6.0mph /  9.7km/h 18.0mph /  29km/h 40% 0.00in /  0mm meteobridge W/m2
16:54 77.7 °F /  25.4 °C 49.5 °F /  9.7 °C 29.47in /  997.9hPa SE 4.0mph /  6.4km/h 17.0mph /  27.4km/h 37% 0.00in /  0mm meteobridge W/m2
17:00 76.6 °F /  24.8 °C 47.7 °F /  8.7 °C 29.47in /  997.9hPa SSE 11.0mph /  17.7km/h 13.0mph /  20.9km/h 36% 0.00in /  0mm meteobridge W/m2
17:07 75.6 °F /  24.2 °C 47.5 °F /  8.6 °C 29.47in /  997.9hPa East 6.0mph /  9.7km/h 13.0mph /  20.9km/h 37% 0.00in /  0mm meteobridge W/m2
17:13 75.4 °F /  24.1 °C 47.3 °F /  8.5 °C 29.47in /  997.9hPa SSE 4.9mph /  7.9km/h 9.0mph /  14.5km/h 37% 0.00in /  0mm meteobridge W/m2
17:19 75.4 °F /  24.1 °C 47.3 °F /  8.5 °C 29.48in /  998.2hPa SE 4.0mph /  6.4km/h 12.0mph /  19.3km/h 37% 0.00in /  0mm meteobridge W/m2
17:25 73.8 °F /  23.2 °C 48.6 °F /  9.2 °C 29.49in /  998.5hPa South 11.0mph /  17.7km/h 20.0mph /  32.2km/h 41% 0.00in /  0mm meteobridge W/m2
17:31 73.0 °F /  22.8 °C 48.6 °F /  9.2 °C 29.49in /  998.5hPa South 16.1mph /  25.9km/h 16.1mph /  25.9km/h 42% 0.00in /  0mm meteobridge W/m2
17:37 73.0 °F /  22.8 °C 48.6 °F /  9.2 °C 29.51in /  999.2hPa South 16.1mph /  25.9km/h -999.0mph /  -1607.7km/h 42% 0.00in /  0mm meteobridge W/m2
17:44 73.0 °F /  22.8 °C 48.6 °F /  9.2 °C 29.51in /  999.2hPa North -999.9mph /  -1609.1km/h -999.0mph /  -1607.7km/h 42% 0.00in /  0mm meteobridge W/m2
Regenstein, Windhoek, Namibia
Compliments of Weather Underground - 2.5 mb